Pagrindinis puslapis
METAR-TAF:

METAR-TAF

Oro uostai :

Manta, Ekvadoras

platuma: 00-57S, ilguma: 080-41W, Aukštis: 13 m

Dabartinis oras

Ataskaita buvo paskelbta 1 valandą ir 5 minutes, ne 08:00 UTC
Vėjas 9 kt iš Pietų/Pietvakarių
Temperatūra 22°C
Drėgmė 88%
Slėgis 1011 hPa
Matomumas 10 km arba daugiau
Su prošvaistėmis ne aukštis 2000 ft

METAR: SEMT 210800Z 21009KT 9999 BKN020 22/20 Q1011 RMK A988

Laikas: 04:05 (09:05 UTC)

Prognozė

Ataskaita buvo paskelbta 4 valandos ir 55 minutes, ne 04:10 UTC
Prognozė galioja nuo 21 metu 06 UTC su 22 metu 06 UTC
Vėjas 7 kt iš Pietų/Pietvakarių
Matomumas 10 km arba daugiau
Apsiniaukę ne aukštis 2000 ft
Tapsmas
nuo 21 metu 14 UTC su 21 metu 16 UTC
Vėjas 14 kt iš Vakarų/Šiaurės Vakarų
Mažai debesys ne aukštis 2300 ft
Išsisklaidę debesys ne aukštis 10000 ft
Tapsmas
nuo 22 metu 01 UTC su 22 metu 03 UTC
Vėjas 7 kt iš Pietų/Pietvakarių
Su prošvaistėmis ne aukštis 2000 ft

TAF: SEMT 210410Z 2106/2206 20007KT 9999 OVC020 BECMG 2114/2116 29014KT FEW023 SCT100 BECMG 2201/2203 21007KT BKN020 TX28/2120Z TN22/2110Z

Orai ataskaitas ir orų prognozės (METAR, TAF).

turimą stotys yra geltonos ir raudonos taškus žemėlapyje.

Perkelti pele per norėdami pamatyti stoties vardą.

Tada spustelėkite, norėdami matyti oro stebėjimo ir prognozės.

Norėdami pakeisti žemėlapį: spustelėkite ant žalios mygtukų su juodo kryžiaus žemyn,; žalią mygtuką su brūkšneliu, jei norite nutolinti; arba žalių rodyklių gretimoms žemėlapius.


METAR-TAF: